createdAt,value
2018-01-13T00:01:04.692Z,1.52
2018-01-13T00:03:32.380Z,1.54
2018-01-13T00:06:00.128Z,1.53
2018-01-13T00:08:27.872Z,1.52
2018-01-13T00:10:55.575Z,1.51
2018-01-13T00:13:23.312Z,1.49
2018-01-13T00:15:51.010Z,1.50
2018-01-13T00:18:18.811Z,1.52
2018-01-13T00:20:46.499Z,1.55
2018-01-13T00:23:14.230Z,1.54
2018-01-13T00:25:41.894Z,1.52
2018-01-13T00:28:09.646Z,1.51
2018-01-13T00:30:37.338Z,1.50
2018-01-13T00:33:05.025Z,1.51
2018-01-13T00:35:32.727Z,1.50
2018-01-13T00:38:00.482Z,1.49
2018-01-13T00:40:28.187Z,1.50
2018-01-13T00:42:55.921Z,1.52
2018-01-13T00:45:23.619Z,1.51
2018-01-13T00:47:51.709Z,1.51
2018-01-13T00:50:19.445Z,1.54
2018-01-13T00:52:47.187Z,1.53
2018-01-13T00:55:14.872Z,1.55
2018-01-13T00:57:42.615Z,1.57
2018-01-13T01:00:10.312Z,1.55
2018-01-13T01:02:38.052Z,1.54
2018-01-13T01:05:05.746Z,1.54
2018-01-13T01:07:33.481Z,1.55
2018-01-13T01:10:01.177Z,1.53
2018-01-13T01:12:28.912Z,1.54
2018-01-13T01:14:56.629Z,1.54
2018-01-13T01:17:24.424Z,1.52
2018-01-13T01:19:52.115Z,1.53
2018-01-13T01:22:19.852Z,1.56
2018-01-13T01:24:47.553Z,1.56
2018-01-13T01:27:15.309Z,1.55
2018-01-13T01:29:43.019Z,1.55
2018-01-13T01:32:10.769Z,1.60
2018-01-13T01:34:38.454Z,1.58
2018-01-13T01:37:06.188Z,1.57
2018-01-13T01:39:33.880Z,1.57
2018-01-13T01:42:01.569Z,1.55
2018-01-13T01:44:29.264Z,1.57
2018-01-13T01:46:57.005Z,1.59
2018-01-13T01:49:24.688Z,1.56
2018-01-13T01:51:52.385Z,1.56
2018-01-13T01:54:20.130Z,1.55
2018-01-13T01:56:47.834Z,1.55
2018-01-13T01:59:15.583Z,1.57
2018-01-13T02:01:43.268Z,1.56
2018-01-13T02:04:11.015Z,1.56
2018-01-13T02:06:38.719Z,1.59
2018-01-13T02:09:06.462Z,1.57
2018-01-13T02:11:34.152Z,1.52
2018-01-13T02:14:01.881Z,1.51
2018-01-13T02:16:29.579Z,1.52
2018-01-13T02:18:57.368Z,1.51
2018-01-13T02:21:25.065Z,1.54
2018-01-13T02:23:52.815Z,1.51
2018-01-13T02:26:20.507Z,1.51
2018-01-13T02:28:48.243Z,1.51
2018-01-13T02:31:15.924Z,1.47
2018-01-13T02:33:43.654Z,1.47
2018-01-13T02:36:11.404Z,1.49
2018-01-13T02:38:39.160Z,1.47
2018-01-13T02:41:06.866Z,1.45
2018-01-13T02:43:34.620Z,1.43
2018-01-13T02:46:02.316Z,1.43
2018-01-13T02:48:30.068Z,1.41
2018-01-13T02:50:57.763Z,1.41
2018-01-13T02:53:25.531Z,1.41
2018-01-13T02:55:53.241Z,1.43
2018-01-13T02:58:20.995Z,1.40
2018-01-13T03:00:48.683Z,1.39
2018-01-13T03:03:16.442Z,1.42
2018-01-13T03:05:44.173Z,1.37
2018-01-13T03:08:11.916Z,1.35
2018-01-13T03:10:39.609Z,1.34
2018-01-13T03:13:07.287Z,1.35
2018-01-13T03:15:34.984Z,1.35
2018-01-13T03:18:02.661Z,1.34
2018-01-13T03:20:30.351Z,1.36
2018-01-13T03:22:58.104Z,1.38
2018-01-13T03:25:25.811Z,1.36
2018-01-13T03:27:53.488Z,1.36
2018-01-13T03:30:21.193Z,1.35
2018-01-13T03:32:48.814Z,1.33
2018-01-13T03:35:16.556Z,1.32
2018-01-13T03:37:44.235Z,1.32
2018-01-13T03:40:11.959Z,1.28
2018-01-13T03:42:39.647Z,1.27
2018-01-13T03:45:07.390Z,1.27
2018-01-13T03:47:35.104Z,1.26
2018-01-13T03:50:02.837Z,1.26
2018-01-13T03:52:30.519Z,1.27
2018-01-13T03:54:58.266Z,1.26
2018-01-13T03:57:25.962Z,1.25
2018-01-13T03:59:53.698Z,1.26
2018-01-13T04:02:21.397Z,1.25
2018-01-13T04:04:49.066Z,1.26
2018-01-13T04:07:16.757Z,1.25
2018-01-13T04:09:44.498Z,1.25
2018-01-13T04:12:12.205Z,1.26
2018-01-13T04:14:39.952Z,1.25
2018-01-13T04:17:07.700Z,1.24
2018-01-13T04:19:35.459Z,1.22
2018-01-13T04:22:03.088Z,1.21
2018-01-13T04:24:30.768Z,1.22
2018-01-13T04:26:58.454Z,1.22
2018-01-13T04:29:26.197Z,1.21
2018-01-13T04:31:53.879Z,1.23
2018-01-13T04:34:21.627Z,1.23
2018-01-13T04:36:49.321Z,1.24
2018-01-13T04:39:17.063Z,1.24
2018-01-13T04:41:44.743Z,1.23
2018-01-13T04:44:12.472Z,1.22
2018-01-13T04:46:40.163Z,1.21
2018-01-13T04:49:07.894Z,1.21
2018-01-13T04:51:35.582Z,1.22
2018-01-13T04:54:03.315Z,1.19
2018-01-13T04:56:31.001Z,1.19
2018-01-13T04:58:58.744Z,1.18
2018-01-13T05:01:26.379Z,1.18
2018-01-13T05:03:54.065Z,1.17
2018-01-13T05:06:21.785Z,1.16
2018-01-13T05:08:49.515Z,1.15
2018-01-13T05:11:17.196Z,1.15
2018-01-13T05:13:44.879Z,1.15
2018-01-13T05:16:12.644Z,1.17
2018-01-13T05:18:40.386Z,1.15
2018-01-13T05:21:08.116Z,1.15
2018-01-13T05:23:35.804Z,1.14
2018-01-13T05:26:03.597Z,1.13
2018-01-13T05:28:31.292Z,1.13
2018-01-13T05:30:59.022Z,1.12
2018-01-13T05:33:26.716Z,1.13
2018-01-13T05:35:54.452Z,1.13
2018-01-13T05:38:22.143Z,1.13
2018-01-13T05:40:49.916Z,1.13
2018-01-13T05:43:17.562Z,1.14
2018-01-13T05:45:45.312Z,1.12
2018-01-13T05:48:13.001Z,1.13
2018-01-13T05:50:40.731Z,1.12
2018-01-13T05:53:08.424Z,1.12
2018-01-13T05:55:36.154Z,1.12
2018-01-13T05:58:03.846Z,1.13
2018-01-13T06:00:31.589Z,1.11
2018-01-13T06:02:59.227Z,1.09
2018-01-13T06:05:26.910Z,1.08
2018-01-13T06:07:54.618Z,1.09
2018-01-13T06:10:22.359Z,1.08
2018-01-13T06:12:50.055Z,1.08
2018-01-13T06:15:17.799Z,1.08
2018-01-13T06:17:45.540Z,1.08
2018-01-13T06:20:13.216Z,1.07
2018-01-13T06:22:40.912Z,1.07
2018-01-13T06:25:08.661Z,1.07
2018-01-13T06:27:36.364Z,1.08
2018-01-13T06:30:04.107Z,1.08
2018-01-13T06:32:31.797Z,1.07
2018-01-13T06:34:59.531Z,1.07
2018-01-13T06:37:27.223Z,1.07
2018-01-13T06:39:55.200Z,1.09
2018-01-13T06:42:22.900Z,1.08
2018-01-13T06:44:50.635Z,1.06
2018-01-13T06:47:18.327Z,1.05
2018-01-13T06:49:46.020Z,1.06
2018-01-13T06:52:13.767Z,1.03
2018-01-13T06:54:41.400Z,1.04
2018-01-13T06:57:09.129Z,1.04
2018-01-13T06:59:36.820Z,1.05
2018-01-13T07:02:04.583Z,1.04
2018-01-13T07:04:32.226Z,1.05
2018-01-13T07:06:59.912Z,1.03
2018-01-13T07:09:27.633Z,1.04
2018-01-13T07:11:55.394Z,1.01
2018-01-13T07:14:23.076Z,1.01
2018-01-13T07:16:50.836Z,1.00
2018-01-13T07:19:18.592Z,1.00
2018-01-13T07:21:46.277Z,1.02
2018-01-13T07:24:13.970Z,1.00
2018-01-13T07:26:41.726Z,1.02
2018-01-13T07:29:09.362Z,1.02
2018-01-13T07:31:37.116Z,1.01
2018-01-13T07:34:04.844Z,1.03
2018-01-13T07:36:32.617Z,1.02
2018-01-13T07:39:00.311Z,0.99
2018-01-13T07:41:28.055Z,1.00
2018-01-13T07:43:55.687Z,0.99
2018-01-13T07:46:23.522Z,0.99
2018-01-13T07:48:51.233Z,0.99
2018-01-13T07:51:18.983Z,1.01
2018-01-13T07:53:46.678Z,0.99
2018-01-13T07:56:14.427Z,1.01
2018-01-13T07:58:42.052Z,1.00
2018-01-13T08:01:09.794Z,1.00
2018-01-13T08:03:37.450Z,1.00
2018-01-13T08:06:05.210Z,1.00
2018-01-13T08:08:32.931Z,0.99
2018-01-13T08:11:00.687Z,0.98
2018-01-13T08:13:28.321Z,0.99
2018-01-13T08:15:56.057Z,0.99
2018-01-13T08:18:23.800Z,0.99
2018-01-13T08:20:51.499Z,0.99
2018-01-13T08:23:19.132Z,1.00
2018-01-13T08:25:46.831Z,0.99
2018-01-13T08:28:14.455Z,1.01
2018-01-13T08:30:42.097Z,1.00
2018-01-13T08:33:09.776Z,1.01
2018-01-13T08:35:37.419Z,1.00
2018-01-13T08:38:05.092Z,1.02
2018-01-13T08:40:32.726Z,1.01
2018-01-13T08:43:00.407Z,1.02
2018-01-13T08:45:28.061Z,1.04
2018-01-13T08:47:58.385Z,1.04
2018-01-13T08:50:26.021Z,1.04
2018-01-13T08:52:53.703Z,1.03
2018-01-13T08:55:21.350Z,1.02
2018-01-13T08:57:49.135Z,1.02
2018-01-13T09:00:16.865Z,1.04
2018-01-13T09:02:44.590Z,1.05
2018-01-13T09:05:12.329Z,1.07
2018-01-13T09:07:40.007Z,1.07
2018-01-13T09:10:09.995Z,1.07
2018-01-13T09:12:37.808Z,1.09
2018-01-13T09:15:05.594Z,1.10
2018-01-13T09:17:33.433Z,1.10
2018-01-13T09:20:01.131Z,1.15
2018-01-13T09:22:28.863Z,1.15
2018-01-13T09:24:56.551Z,1.14
2018-01-13T09:27:24.282Z,1.14
2018-01-13T09:29:51.996Z,1.14
2018-01-13T09:32:19.722Z,1.13
2018-01-13T09:34:47.420Z,1.15
2018-01-13T09:37:15.096Z,1.17
2018-01-13T09:39:42.780Z,1.22
2018-01-13T09:42:10.523Z,1.19
2018-01-13T09:44:38.290Z,1.19
2018-01-13T09:47:06.017Z,1.19
2018-01-13T09:49:33.835Z,1.20
2018-01-13T09:52:01.574Z,1.20
2018-01-13T09:54:29.268Z,1.22
2018-01-13T09:56:57.002Z,1.23
2018-01-13T09:59:24.697Z,1.25
2018-01-13T10:01:52.465Z,1.26
2018-01-13T10:04:20.157Z,1.27
2018-01-13T10:06:47.848Z,1.29
2018-01-13T10:09:15.522Z,1.33
2018-01-13T10:11:43.358Z,1.34
2018-01-13T10:14:11.036Z,1.34
2018-01-13T10:16:38.684Z,1.37
2018-01-13T10:19:06.379Z,1.39
2018-01-13T10:21:34.091Z,1.38
2018-01-13T10:24:01.770Z,1.41
2018-01-13T10:26:29.393Z,1.41
2018-01-13T10:28:57.064Z,1.42
2018-01-13T10:31:24.744Z,1.43
2018-01-13T10:33:52.414Z,1.42
2018-01-13T10:36:20.111Z,1.46
2018-01-13T10:38:47.819Z,1.44
2018-01-13T10:41:15.463Z,1.44
2018-01-13T10:43:43.164Z,1.44
2018-01-13T10:46:11.736Z,1.47
2018-01-13T10:48:39.439Z,1.51
2018-01-13T10:51:07.072Z,1.57
2018-01-13T10:53:34.817Z,1.57
2018-01-13T10:56:02.519Z,1.59
2018-01-13T10:58:30.207Z,1.52
2018-01-13T11:00:57.841Z,1.53
2018-01-13T11:03:25.572Z,1.53
2018-01-13T11:05:53.286Z,1.55
2018-01-13T11:08:20.980Z,1.54
2018-01-13T11:10:48.661Z,1.55
2018-01-13T11:13:16.424Z,1.55
2018-01-13T11:15:44.122Z,1.52
2018-01-13T11:18:11.809Z,1.54
2018-01-13T11:20:39.446Z,1.58
2018-01-13T11:23:07.163Z,1.55
2018-01-13T11:25:34.788Z,1.56
2018-01-13T11:28:02.460Z,1.55
2018-01-13T11:30:30.090Z,1.55
2018-01-13T11:32:57.818Z,1.61
2018-01-13T11:35:25.466Z,1.59
2018-01-13T11:37:53.147Z,1.61
2018-01-13T11:40:20.878Z,1.64
2018-01-13T11:42:48.639Z,1.66
2018-01-13T11:45:16.323Z,1.67
2018-01-13T11:47:44.014Z,1.62
2018-01-13T11:50:11.641Z,1.61
2018-01-13T11:52:39.273Z,1.60
2018-01-13T11:55:06.955Z,1.59
2018-01-13T11:57:34.587Z,1.62
2018-01-13T12:00:02.310Z,1.64
2018-01-13T12:02:29.946Z,1.62
2018-01-13T12:04:57.684Z,1.63
2018-01-13T12:07:25.311Z,1.66
2018-01-13T12:09:53.065Z,1.64
2018-01-13T12:12:20.777Z,1.62
2018-01-13T12:14:48.456Z,1.58
2018-01-13T12:17:16.826Z,1.61
2018-01-13T12:19:44.941Z,1.57
2018-01-13T12:22:12.722Z,1.52
2018-01-13T12:24:40.518Z,1.53
2018-01-13T12:27:08.153Z,1.51
2018-01-13T12:29:36.314Z,1.54
2018-01-13T12:32:03.994Z,1.53
2018-01-13T12:34:31.667Z,1.52
2018-01-13T12:36:59.360Z,1.51
2018-01-13T12:39:27.104Z,1.53
2018-01-13T12:41:54.890Z,1.50
2018-01-13T12:44:22.636Z,1.51
2018-01-13T12:46:50.272Z,1.52
2018-01-13T12:49:19.034Z,1.56
2018-01-13T12:51:47.650Z,1.57
2018-01-13T12:54:15.411Z,1.61
2018-01-13T12:56:43.117Z,1.60
2018-01-13T12:59:10.828Z,1.57
2018-01-13T13:01:38.482Z,1.53
2018-01-13T13:04:06.148Z,1.47
2018-01-13T13:06:33.785Z,1.46
2018-01-13T13:09:01.474Z,1.46
2018-01-13T13:11:29.110Z,1.44
2018-01-13T13:13:56.791Z,1.46
2018-01-13T13:16:24.502Z,1.40
2018-01-13T13:18:52.189Z,1.38
2018-01-13T13:21:19.908Z,1.45
2018-01-13T13:23:47.595Z,1.38
2018-01-13T13:26:15.281Z,1.36
2018-01-13T13:28:42.962Z,1.31
2018-01-13T13:31:10.663Z,1.27
2018-01-13T13:33:38.371Z,1.25
2018-01-13T13:36:06.112Z,1.26
2018-01-13T13:38:33.813Z,1.26
2018-01-13T13:41:01.943Z,1.25
2018-01-13T13:43:30.707Z,1.22
2018-01-13T13:46:01.566Z,1.21
2018-01-13T13:48:33.496Z,1.15
2018-01-13T13:51:01.657Z,1.09
2018-01-13T13:53:31.007Z,1.14
2018-01-13T13:56:01.501Z,1.05
2018-01-13T13:58:30.280Z,1.00
2018-01-13T14:01:21.946Z,0.99
2018-01-13T14:03:30.261Z,0.94
2018-01-13T14:06:02.172Z,0.90
2018-01-13T14:08:30.626Z,0.91
2018-01-13T14:10:58.756Z,0.89
2018-01-13T14:13:28.199Z,0.83
2018-01-13T14:15:57.494Z,0.79
2018-01-13T14:18:25.114Z,0.79
2018-01-13T14:20:52.895Z,0.76
2018-01-13T14:23:20.954Z,0.77
2018-01-13T14:25:50.587Z,0.74
2018-01-13T14:28:18.324Z,0.70
2018-01-13T14:30:46.601Z,0.69
2018-01-13T14:33:15.784Z,0.67
2018-01-13T14:35:44.472Z,0.67
2018-01-13T14:38:15.078Z,0.71
2018-01-13T14:40:43.220Z,0.64
2018-01-13T14:43:11.924Z,0.62
2018-01-13T14:45:40.968Z,0.60
2018-01-13T14:48:08.686Z,0.60
2018-01-13T14:50:37.683Z,0.63
2018-01-13T14:53:06.469Z,0.60
2018-01-13T14:55:34.616Z,0.59
2018-01-13T14:58:05.025Z,0.56
2018-01-13T15:00:35.422Z,0.58
2018-01-13T15:03:03.144Z,0.54
2018-01-13T15:05:32.795Z,0.54
2018-01-13T15:08:01.561Z,0.53
2018-01-13T15:10:33.601Z,0.51
2018-01-13T15:13:02.289Z,0.51
2018-01-13T15:15:31.861Z,0.49
2018-01-13T15:18:01.375Z,0.48
2018-01-13T15:20:30.423Z,0.47
2018-01-13T15:23:00.445Z,0.47
2018-01-13T15:25:28.263Z,0.48
2018-01-13T15:27:56.905Z,0.49
2018-01-13T15:30:25.909Z,0.46
2018-01-13T15:32:57.174Z,0.43
2018-01-13T15:35:26.905Z,0.43
2018-01-13T15:37:55.724Z,0.43
2018-01-13T15:40:25.772Z,0.42
2018-01-13T15:42:54.180Z,0.42
2018-01-13T15:45:24.608Z,0.40
2018-01-13T15:47:53.010Z,0.40
2018-01-13T15:50:21.988Z,0.41
2018-01-13T15:52:50.502Z,0.39
2018-01-13T15:55:24.235Z,0.39
2018-01-13T15:57:53.032Z,0.38
2018-01-13T16:00:24.805Z,0.37
2018-01-13T16:02:53.587Z,0.37
2018-01-13T16:05:21.509Z,0.39
2018-01-13T16:07:51.218Z,0.38
2018-01-13T16:10:19.417Z,0.37
2018-01-13T16:12:49.898Z,0.36
2018-01-13T16:15:19.502Z,0.35
2018-01-13T16:17:48.022Z,0.35
2018-01-13T16:20:18.080Z,0.35
2018-01-13T16:22:46.947Z,0.31
2018-01-13T16:25:15.066Z,0.32
2018-01-13T16:27:42.799Z,0.28
2018-01-13T16:30:12.737Z,0.28
2018-01-13T16:32:41.456Z,0.26
2018-01-13T16:35:11.080Z,0.24
2018-01-13T16:37:40.698Z,0.22
2018-01-13T16:40:09.216Z,0.21
2018-01-13T16:42:37.864Z,0.22
2018-01-13T16:45:06.007Z,0.20
2018-01-13T16:47:34.706Z,0.20
2018-01-13T16:50:03.263Z,0.16
2018-01-13T16:52:31.117Z,0.25
2018-01-13T16:55:01.012Z,0.14
2018-01-13T16:57:29.726Z,0.08
2018-01-13T16:59:59.872Z,0.06
2018-01-13T17:02:27.932Z,0.06
2018-01-13T17:04:56.425Z,0.07
2018-01-13T17:07:25.010Z,0.06
2018-01-13T17:09:54.594Z,0.04
2018-01-13T17:12:26.634Z,0.04
2018-01-13T17:14:55.479Z,0.02
2018-01-13T17:17:24.847Z,0.00
2018-01-13T17:19:52.699Z,0.00
2018-01-13T17:22:21.786Z,-0.02
2018-01-13T17:24:49.575Z,-0.02
2018-01-13T17:27:17.484Z,-0.03
2018-01-13T17:29:45.350Z,-0.04
2018-01-13T17:32:13.963Z,-0.04
2018-01-13T17:34:42.198Z,-0.04
2018-01-13T17:37:12.200Z,-0.05
2018-01-13T17:39:40.885Z,-0.08
2018-01-13T17:42:10.847Z,-0.06
2018-01-13T17:44:38.747Z,-0.08
2018-01-13T17:47:06.750Z,-0.10
2018-01-13T17:49:39.481Z,-0.10
2018-01-13T17:52:09.302Z,-0.11
2018-01-13T17:54:37.030Z,-0.12
2018-01-13T17:57:08.144Z,-0.10
2018-01-13T17:59:38.471Z,-0.10
2018-01-13T18:02:08.856Z,-0.08
2018-01-13T18:04:37.631Z,-0.08
2018-01-13T18:07:06.296Z,-0.07
2018-01-13T18:09:35.054Z,-0.08
2018-01-13T18:12:03.689Z,-0.06
2018-01-13T18:14:32.036Z,-0.03
2018-01-13T18:17:01.407Z,-0.03
2018-01-13T18:19:29.266Z,-0.03
2018-01-13T18:21:58.390Z,-0.03
2018-01-13T18:24:30.677Z,0.00
2018-01-13T18:27:00.163Z,0.02
2018-01-13T18:29:28.379Z,0.05
2018-01-13T18:31:57.810Z,0.08
2018-01-13T18:34:28.150Z,0.10
2018-01-13T18:36:58.395Z,0.11
2018-01-13T18:39:27.979Z,0.11
2018-01-13T18:41:57.459Z,0.11
2018-01-13T18:44:26.971Z,0.11
2018-01-13T18:46:55.599Z,0.11
2018-01-13T18:49:24.525Z,0.14
2018-01-13T18:51:53.522Z,0.12
2018-01-13T18:54:23.574Z,0.14
2018-01-13T18:56:54.583Z,0.17
2018-01-13T18:59:24.371Z,0.17
2018-01-13T19:01:52.191Z,0.15
2018-01-13T19:04:22.749Z,0.14
2018-01-13T19:06:53.423Z,0.18
2018-01-13T19:09:21.579Z,0.17
2018-01-13T19:11:51.107Z,0.15
2018-01-13T19:14:18.936Z,0.16
2018-01-13T19:16:47.380Z,0.19
2018-01-13T19:19:16.657Z,0.20
2018-01-13T19:21:46.704Z,0.20
2018-01-13T19:24:15.261Z,0.19
2018-01-13T19:26:43.333Z,0.20
2018-01-13T19:29:11.562Z,0.21
2018-01-13T19:31:41.490Z,0.21
2018-01-13T19:34:11.935Z,0.24
2018-01-13T19:36:42.689Z,0.23
2018-01-13T19:39:13.069Z,0.27
2018-01-13T19:41:42.197Z,0.28
2018-01-13T19:44:10.972Z,0.28
2018-01-13T19:46:39.065Z,0.31
2018-01-13T19:49:07.755Z,0.31
2018-01-13T19:51:42.816Z,0.32
2018-01-13T19:54:13.551Z,0.34
2018-01-13T19:56:41.985Z,0.29
2018-01-13T19:59:10.928Z,0.32
2018-01-13T20:01:41.603Z,0.32
2018-01-13T20:04:11.340Z,0.34
2018-01-13T20:06:39.884Z,0.35
2018-01-13T20:09:10.858Z,0.35
2018-01-13T20:11:38.512Z,0.34
2018-01-13T20:14:07.196Z,0.34
2018-01-13T20:16:36.544Z,0.36
2018-01-13T20:19:06.153Z,0.35
2018-01-13T20:21:34.338Z,0.36
2018-01-13T20:24:03.145Z,0.38
2018-01-13T20:26:33.000Z,0.39
2018-01-13T20:29:02.512Z,0.40
2018-01-13T20:31:30.231Z,0.41
2018-01-13T20:33:59.978Z,0.43
2018-01-13T20:36:28.003Z,0.41
2018-01-13T20:38:58.416Z,0.41
2018-01-13T20:41:27.247Z,0.44
2018-01-13T20:43:57.052Z,0.45
2018-01-13T20:46:27.072Z,0.47
2018-01-13T20:48:55.202Z,0.50
2018-01-13T20:51:23.545Z,0.51
2018-01-13T20:53:52.460Z,0.55
2018-01-13T20:56:20.680Z,0.51
2018-01-13T20:58:50.051Z,0.54
2018-01-13T21:01:20.766Z,0.55
2018-01-13T21:03:51.089Z,0.55
2018-01-13T21:06:20.451Z,0.55
2018-01-13T21:08:48.517Z,0.56
2018-01-13T21:11:17.313Z,0.58
2018-01-13T21:13:47.229Z,0.60
2018-01-13T21:16:15.417Z,0.60
2018-01-13T21:21:21.266Z,0.63
2018-01-13T21:23:50.643Z,0.66
2018-01-13T21:26:20.670Z,0.68
2018-01-13T21:28:51.252Z,0.69
2018-01-13T21:31:20.864Z,0.68
2018-01-13T21:33:49.888Z,0.67
2018-01-13T21:36:19.421Z,0.66
2018-01-13T21:38:47.706Z,0.61
2018-01-13T21:41:16.008Z,0.62
2018-01-13T21:43:46.220Z,0.62
2018-01-13T21:46:16.894Z,0.62
2018-01-13T21:48:47.642Z,0.62
2018-01-13T21:51:16.195Z,0.63
2018-01-13T21:53:45.123Z,0.61
2018-01-13T21:56:16.511Z,0.61
2018-01-13T21:58:49.125Z,0.62
2018-01-13T22:01:17.958Z,0.61
2018-01-13T22:03:46.636Z,0.60
2018-01-13T22:06:16.282Z,0.61
2018-01-13T22:08:44.442Z,0.59
2018-01-13T22:11:13.136Z,0.56
2018-01-13T22:13:42.463Z,0.57
2018-01-13T22:16:11.810Z,0.61
2018-01-13T22:18:41.355Z,0.61
2018-01-13T22:21:11.764Z,0.61
2018-01-13T22:23:45.472Z,0.60
2018-01-13T22:26:14.898Z,0.61
2018-01-13T22:28:43.351Z,0.59
2018-01-13T22:31:11.048Z,0.58
2018-01-13T22:33:39.707Z,0.55
2018-01-13T22:36:09.596Z,0.56
2018-01-13T22:38:38.638Z,0.54
2018-01-13T22:41:12.433Z,0.53
2018-01-13T22:43:42.234Z,0.55
2018-01-13T22:46:13.514Z,0.56
2018-01-13T22:48:41.870Z,0.55
2018-01-13T22:51:10.499Z,0.53
2018-01-13T22:53:39.712Z,0.55
2018-01-13T22:56:09.051Z,0.58
2018-01-13T23:01:13.114Z,0.56
2018-01-13T23:03:43.800Z,0.54
2018-01-13T23:06:12.882Z,0.54
2018-01-13T23:08:41.699Z,0.55
2018-01-13T23:11:12.333Z,0.55
2018-01-13T23:13:40.815Z,0.54
2018-01-13T23:16:10.247Z,0.52
2018-01-13T23:18:40.974Z,0.50
2018-01-13T23:21:10.026Z,0.49
2018-01-13T23:23:37.841Z,0.53
2018-01-13T23:26:06.360Z,0.56
2018-01-13T23:28:40.065Z,0.56
2018-01-13T23:31:10.237Z,0.58
2018-01-13T23:33:40.631Z,0.57
2018-01-13T23:36:12.876Z,0.55
2018-01-13T23:38:42.484Z,0.55
2018-01-13T23:41:12.466Z,0.53
2018-01-13T23:43:40.680Z,0.51
2018-01-13T23:46:10.872Z,0.54
2018-01-13T23:48:39.858Z,0.54
2018-01-13T23:51:10.009Z,0.54
2018-01-13T23:53:38.653Z,0.52
2018-01-13T23:56:09.617Z,0.52
2018-01-13T23:58:39.301Z,0.49
